Time;durP1;ratioP1;P1;durP2;ratioP2;P2;SDS_P1;SDS_P2;PMS_P1;PMS_P2;Temp;Humidity;BMP_temperature;BMP_pressure;BME280_temperature;BME280_humidity;BME280_pressure;Samples;Min_cycle;Max_cycle;Signal;HPM_P1;HPM_P2
2024/03/05 00:02:04;;;;;;;789.17;744.93;;;8.60;99.90;;;;;;5031552;28;20260;-73
2024/03/05 00:04:30;;;;;;;745.73;704.80;;;8.60;99.90;;;;;;5031099;28;20278;-74
2024/03/05 00:06:56;;;;;;;747.23;704.97;;;8.70;99.90;;;;;;5031503;28;20193;-72
2024/03/05 00:09:22;;;;;;;773.00;730.20;;;8.70;99.90;;;;;;5031407;28;20753;-73
2024/03/05 00:11:47;;;;;;;751.93;709.67;;;8.60;99.90;;;;;;5031578;28;20221;-74
2024/03/05 00:14:13;;;;;;;800.30;754.63;;;8.60;99.90;;;;;;5030952;28;20195;-73
2024/03/05 00:16:38;;;;;;;769.97;727.80;;;8.50;99.90;;;;;;5031233;28;20253;-73
2024/03/05 00:19:04;;;;;;;790.27;744.77;;;8.50;99.90;;;;;;5031311;28;20166;-73
2024/03/05 00:21:31;;;;;;;770.40;726.97;;;8.70;99.90;;;;;;5031290;28;20178;-73
2024/03/05 00:23:57;;;;;;;794.10;750.63;;;8.70;99.90;;;;;;5033156;28;20193;-74
2024/03/05 00:26:25;;;;;;;783.93;739.47;;;8.60;99.90;;;;;;5035022;28;20547;-73
2024/03/05 00:28:51;;;;;;;740.13;698.97;;;8.50;99.90;;;;;;5035027;28;20312;-73
2024/03/05 00:31:17;;;;;;;773.20;729.73;;;8.40;99.90;;;;;;5034938;28;20751;-74
2024/03/05 00:33:42;;;;;;;744.57;702.80;;;8.40;99.90;;;;;;5034502;28;20436;-73
2024/03/05 00:36:08;;;;;;;765.73;722.97;;;8.30;99.90;;;;;;5034724;28;20279;-73
2024/03/05 00:38:36;;;;;;;790.80;745.97;;;8.30;99.90;;;;;;5034761;28;20161;-73
2024/03/05 00:41:02;;;;;;;808.23;762.03;;;8.40;99.90;;;;;;5034846;28;20264;-73
2024/03/05 00:43:28;;;;;;;831.37;783.27;;;8.40;99.90;;;;;;5034333;28;20513;-72
2024/03/05 00:45:53;;;;;;;828.87;781.30;;;8.40;99.90;;;;;;5034654;28;20167;-72
2024/03/05 00:48:19;;;;;;;827.47;780.07;;;8.50;99.90;;;;;;5034518;28;20180;-74
2024/03/05 00:50:45;;;;;;;809.90;763.20;;;8.50;99.90;;;;;;5034458;28;20176;-73
2024/03/05 00:53:11;;;;;;;848.80;799.97;;;8.70;99.90;;;;;;5034116;28;21439;-74
2024/03/05 00:55:37;;;;;;;879.97;828.97;;;8.60;99.90;;;;;;5034659;28;20536;-73
2024/03/05 00:58:04;;;;;;;837.53;789.03;;;8.70;99.90;;;;;;5034374;28;20637;-73
2024/03/05 01:00:30;;;;;;;846.10;797.87;;;8.60;99.90;;;;;;5034373;28;20748;-72
2024/03/05 01:02:55;;;;;;;827.70;779.93;;;8.80;99.90;;;;;;5033839;28;20408;-74
2024/03/05 01:05:21;;;;;;;848.60;798.90;;;9.00;99.90;;;;;;5034481;28;20189;-73
2024/03/05 01:07:47;;;;;;;866.37;815.90;;;8.70;99.90;;;;;;5034194;28;20413;-74
2024/03/05 01:10:13;;;;;;;860.43;809.73;;;8.70;99.90;;;;;;5034154;28;20276;-73
2024/03/05 01:12:39;;;;;;;880.47;828.73;;;8.70;99.90;;;;;;5033861;28;20166;-73
2024/03/05 01:15:05;;;;;;;844.07;795.27;;;8.70;99.90;;;;;;5034071;28;20606;-74
2024/03/05 01:17:32;;;;;;;834.43;786.17;;;8.70;99.90;;;;;;5033969;28;20406;-73
2024/03/05 01:19:58;;;;;;;875.20;824.63;;;8.70;99.90;;;;;;5034008;28;20416;-73
2024/03/05 01:22:24;;;;;;;871.13;819.73;;;8.70;99.90;;;;;;5033634;28;20402;-74
2024/03/05 01:24:50;;;;;;;870.80;819.37;;;8.70;99.90;;;;;;5033927;28;20191;-73
2024/03/05 01:27:16;;;;;;;856.67;807.43;;;8.60;99.90;;;;;;5033927;28;20173;-73
2024/03/05 01:29:43;;;;;;;877.77;827.50;;;8.60;99.90;;;;;;5033966;28;20883;-73
2024/03/05 01:32:09;;;;;;;847.97;799.10;;;8.50;99.90;;;;;;5033723;28;20174;-73
2024/03/05 01:34:37;;;;;;;873.50;822.87;;;8.50;99.90;;;;;;5033092;28;20429;-73
2024/03/05 01:37:04;;;;;;;895.80;843.73;;;8.50;99.90;;;;;;5033610;28;20554;-73
2024/03/05 01:39:30;;;;;;;857.20;807.43;;;8.60;99.90;;;;;;5033641;28;20879;-73
2024/03/05 01:41:56;;;;;;;869.47;818.70;;;8.80;99.90;;;;;;5033702;28;20548;-74
2024/03/05 01:44:22;;;;;;;870.47;818.60;;;8.80;99.90;;;;;;5033191;28;20437;-73
2024/03/05 01:46:51;;;;;;;856.77;806.90;;;8.80;99.90;;;;;;5033441;28;20408;-74
2024/03/05 01:49:17;;;;;;;840.70;793.03;;;8.70;99.90;;;;;;5033712;28;20410;-75
2024/03/05 01:51:44;;;;;;;866.07;815.50;;;8.70;99.90;;;;;;5033609;28;20414;-74
2024/03/05 01:54:12;;;;;;;827.60;780.73;;;8.60;99.90;;;;;;5033014;28;20449;-74
2024/03/05 01:56:38;;;;;;;846.23;797.27;;;8.70;99.90;;;;;;5033373;28;20452;-73
2024/03/05 01:59:05;;;;;;;848.30;800.30;;;8.50;99.90;;;;;;5033280;28;20760;-73
2024/03/05 02:01:31;;;;;;;833.73;785.47;;;8.50;99.90;;;;;;5033146;28;20413;-74
2024/03/05 02:03:58;;;;;;;828.97;781.90;;;8.70;99.90;;;;;;5032999;28;20998;-74
2024/03/05 02:06:24;;;;;;;824.13;777.53;;;8.50;99.90;;;;;;5033204;28;20436;-74
2024/03/05 02:08:50;;;;;;;867.73;818.27;;;8.50;99.90;;;;;;5033195;28;20928;-74
2024/03/05 02:11:16;;;;;;;846.27;797.20;;;8.60;99.90;;;;;;5033360;28;20173;-74
2024/03/05 02:13:43;;;;;;;846.57;798.63;;;8.60;99.90;;;;;;5033045;28;20277;-74
2024/03/05 02:16:09;;;;;;;855.97;805.70;;;8.80;99.90;;;;;;5033080;28;21009;-74
2024/03/05 02:18:35;;;;;;;914.57;861.37;;;8.80;99.90;;;;;;5032948;28;20401;-73
2024/03/05 02:21:05;;;;;;;901.67;849.80;;;8.80;99.90;;;;;;5032999;28;20483;-73
2024/03/05 02:23:32;;;;;;;920.37;865.37;;;8.90;99.90;;;;;;5032623;28;20421;-72
2024/03/05 02:26:00;;;;;;;942.70;886.53;;;9.00;99.90;;;;;;5032775;28;20405;-73
2024/03/05 02:28:26;;;;;;;932.63;876.33;;;9.00;99.90;;;;;;5032869;28;20433;-73
2024/03/05 02:30:51;;;;;;;919.87;864.97;;;9.10;99.90;;;;;;5032677;28;20462;-73
2024/03/05 02:33:18;;;;;;;936.63;880.73;;;9.20;99.90;;;;;;5032323;28;20234;-73
2024/03/05 02:35:47;;;;;;;936.43;880.57;;;9.20;99.90;;;;;;5032476;28;20865;-74
2024/03/05 02:38:13;;;;;;;927.97;872.97;;;9.40;99.90;;;;;;5033384;28;20517;-74
2024/03/05 02:40:39;;;;;;;927.07;872.80;;;9.30;99.90;;;;;;5033697;28;20412;-74
2024/03/05 02:43:06;;;;;;;910.47;856.00;;;9.10;99.90;;;;;;5032317;28;20913;-74
2024/03/05 02:45:32;;;;;;;946.23;888.43;;;9.30;99.90;;;;;;5031645;28;20164;-73
2024/03/05 02:48:01;;;;;;;915.37;860.77;;;9.40;99.90;;;;;;5032276;28;20417;-73
2024/03/05 02:50:27;;;;;;;901.03;847.33;;;9.40;99.90;;;;;;5032279;28;20166;-74
2024/03/05 02:52:53;;;;;;;904.67;850.90;;;9.50;99.90;;;;;;5031850;28;20408;-73
2024/03/05 02:55:18;;;;;;;893.87;840.67;;;9.40;99.90;;;;;;5032214;28;20196;-73
2024/03/05 02:57:44;;;;;;;906.23;852.67;;;9.20;99.90;;;;;;5032180;28;20171;-72
2024/03/05 03:00:19;;;;;;;934.43;878.20;;;9.30;99.90;;;;;;5032200;28;20639;-73
2024/03/05 03:02:47;;;;;;;934.00;877.63;;;9.20;99.90;;;;;;5032044;28;20172;-73
2024/03/05 03:05:13;;;;;;;926.63;871.43;;;9.30;99.90;;;;;;5032113;28;20445;-73
2024/03/05 03:07:39;;;;;;;915.33;860.87;;;9.30;99.90;;;;;;5032032;28;20397;-73
2024/03/05 03:10:07;;;;;;;919.03;864.47;;;9.20;99.90;;;;;;5031967;28;20198;-73
2024/03/05 03:12:33;;;;;;;906.73;853.10;;;9.40;99.90;;;;;;5031691;28;20413;-73
2024/03/05 03:14:58;;;;;;;914.73;859.93;;;9.30;99.20;;;;;;5031808;28;20434;-73
2024/03/05 03:17:24;;;;;;;908.77;855.57;;;9.20;99.90;;;;;;5031995;28;20168;-74
2024/03/05 03:19:50;;;;;;;917.27;863.13;;;9.30;99.90;;;;;;5032017;28;20772;-73
2024/03/05 03:22:16;;;;;;;897.87;845.73;;;9.40;99.90;;;;;;5031897;28;20398;-72
2024/03/05 03:24:42;;;;;;;875.30;824.53;;;9.30;98.80;;;;;;5031517;28;20696;-73
2024/03/05 03:27:08;;;;;;;917.20;862.00;;;9.30;99.20;;;;;;5031964;28;20216;-72
2024/03/05 03:29:34;;;;;;;909.87;854.27;;;9.20;99.60;;;;;;5031803;28;20414;-72
2024/03/05 03:34:28;;;;;;;907.03;853.83;;;9.10;99.90;;;;;;5059042;28;20249;-71
2024/03/05 03:36:54;;;;;;;878.40;828.20;;;9.00;99.90;;;;;;5064328;28;20513;-71
2024/03/05 03:39:28;;;;;;;858.50;808.73;;;8.90;99.90;;;;;;5051638;28;20163;-71
2024/03/05 03:41:54;;;;;;;876.97;826.30;;;8.90;99.90;;;;;;5051672;28;20169;-70
2024/03/05 03:44:22;;;;;;;868.47;817.17;;;8.90;99.90;;;;;;5031475;28;20774;-71
2024/03/05 03:46:48;;;;;;;900.17;847.97;;;9.00;99.90;;;;;;5031630;28;20592;-71
2024/03/05 03:49:14;;;;;;;890.93;838.93;;;9.10;99.90;;;;;;5031747;28;20468;-71
2024/03/05 03:51:40;;;;;;;902.30;849.57;;;9.00;99.90;;;;;;5031655;28;20416;-71
2024/03/05 03:54:06;;;;;;;896.57;844.20;;;9.00;99.90;;;;;;5031224;28;20482;-71
2024/03/05 03:56:34;;;;;;;895.40;843.00;;;9.00;99.90;;;;;;5013911;28;20206;-71
2024/03/05 03:58:59;;;;;;;932.47;876.77;;;8.90;99.90;;;;;;5035429;28;20657;-71
2024/03/05 04:01:25;;;;;;;894.60;842.60;;;9.00;99.90;;;;;;5017786;28;20476;-71
2024/03/05 04:03:51;;;;;;;888.57;836.63;;;8.90;99.90;;;;;;5035049;28;20743;-71
2024/03/05 04:06:18;;;;;;;886.60;835.27;;;9.00;99.90;;;;;;5035367;28;20291;-71
2024/03/05 04:08:43;;;;;;;920.80;866.00;;;9.30;99.90;;;;;;5035327;28;20174;-71
2024/03/05 04:11:09;;;;;;;878.30;827.40;;;9.10;99.90;;;;;;5035379;28;20521;-71
2024/03/05 04:13:35;;;;;;;877.70;826.27;;;9.10;99.90;;;;;;5034900;28;20266;-71
2024/03/05 04:16:00;;;;;;;899.87;847.43;;;9.10;99.90;;;;;;5017465;28;20206;-71
2024/03/05 04:18:26;;;;;;;870.33;819.23;;;9.10;99.90;;;;;;5035224;28;20606;-71
2024/03/05 04:20:53;;;;;;;893.80;842.53;;;9.00;99.90;;;;;;5035175;28;20205;-71
2024/03/05 04:23:20;;;;;;;945.27;889.43;;;9.00;99.90;;;;;;5034719;28;21183;-70
2024/03/05 04:25:47;;;;;;;893.90;841.93;;;9.00;99.90;;;;;;5017243;28;20945;-71
2024/03/05 04:28:13;;;;;;;896.80;844.60;;;9.00;99.90;;;;;;5034952;28;20414;-71
2024/03/05 04:30:46;;;;;;;910.63;856.73;;;8.90;99.90;;;;;;5035029;28;20418;-71
2024/03/05 04:33:15;;;;;;;876.70;825.43;;;8.90;99.90;;;;;;5016832;28;20472;-71
2024/03/05 04:35:42;;;;;;;877.93;826.03;;;9.00;99.90;;;;;;5016925;28;20464;-71
2024/03/05 04:38:08;;;;;;;886.70;835.20;;;9.10;99.90;;;;;;5034906;28;20500;-71
2024/03/05 04:40:35;;;;;;;933.80;878.30;;;9.10;99.90;;;;;;5034840;28;20472;-71
2024/03/05 04:43:00;;;;;;;861.27;810.40;;;9.10;99.90;;;;;;5034389;28;20433;-71
2024/03/05 04:45:27;;;;;;;882.97;830.97;;;9.10;99.90;;;;;;5034748;28;20904;-71
2024/03/05 04:47:53;;;;;;;906.33;853.37;;;9.10;99.90;;;;;;5034660;28;20421;-71
2024/03/05 04:50:20;;;;;;;882.87;830.67;;;9.10;99.90;;;;;;5034734;28;20886;-71
2024/03/05 04:52:45;;;;;;;887.30;835.87;;;9.30;99.90;;;;;;5034316;28;20517;-71
2024/03/05 04:55:14;;;;;;;918.97;864.20;;;9.30;99.90;;;;;;5034458;28;20457;-71
2024/03/05 04:57:42;;;;;;;913.30;859.93;;;9.30;99.90;;;;;;5034499;28;21079;-70
2024/03/05 05:00:19;;;;;;;939.60;884.47;;;9.30;99.90;;;;;;5034428;28;20494;-71
2024/03/05 05:02:49;;;;;;;921.00;867.10;;;9.20;99.90;;;;;;5034132;28;20438;-70
2024/03/05 05:05:18;;;;;;;906.13;853.30;;;9.10;99.90;;;;;;5034769;28;20530;-70
2024/03/05 05:07:46;;;;;;;906.57;852.67;;;9.20;99.90;;;;;;5034456;28;20891;-69
2024/03/05 05:10:12;;;;;;;895.30;842.10;;;9.20;99.90;;;;;;5033422;28;20419;-69
2024/03/05 05:12:39;;;;;;;934.70;878.50;;;9.30;99.90;;;;;;5016340;28;20450;-70
2024/03/05 05:15:08;;;;;;;932.23;876.83;;;9.30;99.90;;;;;;5034347;28;20420;-70
2024/03/05 05:17:34;;;;;;;917.20;863.00;;;9.30;99.90;;;;;;5033457;28;20502;-69
2024/03/05 05:20:00;;;;;;;926.97;871.93;;;9.40;99.90;;;;;;5034187;28;20429;-69
2024/03/05 05:22:25;;;;;;;937.93;881.43;;;9.50;99.90;;;;;;5033620;28;20430;-69
2024/03/05 05:24:51;;;;;;;975.73;916.97;;;9.40;99.90;;;;;;5033933;28;20407;-70
2024/03/05 05:27:17;;;;;;;919.53;865.07;;;9.40;99.90;;;;;;5033872;28;20172;-70
2024/03/05 05:29:43;;;;;;;937.30;881.30;;;9.50;99.90;;;;;;5033808;28;20418;-70
2024/03/05 05:32:09;;;;;;;932.43;875.87;;;8.90;99.90;;;;;;5033606;28;20172;-70
2024/03/05 05:34:35;;;;;;;924.13;868.57;;;9.50;99.90;;;;;;5033554;28;20184;-70
2024/03/05 05:37:00;;;;;;;957.77;899.57;;;9.50;99.90;;;;;;5033686;28;20223;-70
2024/03/05 05:39:27;;;;;;;966.40;907.83;;;9.60;99.90;;;;;;5033802;28;20485;-69
2024/03/05 05:41:54;;;;;;;1016.23;953.37;;;9.60;99.90;;;;;;5033599;28;20402;-70
2024/03/05 05:44:20;;;;;;;951.23;892.97;;;9.60;99.90;;;;;;5033189;28;20521;-70
2024/03/05 05:46:46;;;;;;;1095.97;999.90;;;9.50;99.90;;;;;;5033597;28;20410;-70
2024/03/05 05:49:19;;;;;;;955.73;899.43;;;9.60;99.90;;;;;;5033477;28;20901;-70
2024/03/05 05:51:48;;;;;;;958.73;902.30;;;9.60;99.90;;;;;;5033419;28;20421;-70
2024/03/05 05:54:16;;;;;;;954.27;896.00;;;9.60;99.90;;;;;;5033082;28;20487;-70
2024/03/05 05:56:43;;;;;;;958.37;900.20;;;9.60;99.90;;;;;;5033223;28;20473;-69
2024/03/05 05:59:09;;;;;;;985.83;925.23;;;9.60;99.90;;;;;;5034659;28;20413;-70
2024/03/05 06:01:37;;;;;;;996.50;934.03;;;9.60;99.90;;;;;;5034462;28;20898;-70
2024/03/05 06:04:06;;;;;;;936.60;880.53;;;9.60;99.90;;;;;;5032880;28;20793;-70
2024/03/05 06:06:33;;;;;;;943.83;887.37;;;9.70;99.90;;;;;;5033254;28;20410;-69
2024/03/05 06:08:59;;;;;;;934.27;879.37;;;9.60;99.90;;;;;;5033147;28;20402;-69
2024/03/05 06:11:27;;;;;;;924.23;869.07;;;9.50;99.90;;;;;;5014406;28;21095;-69
2024/03/05 06:13:53;;;;;;;1003.80;939.43;;;9.40;99.90;;;;;;5032440;28;20195;-69
2024/03/05 06:16:19;;;;;;;925.03;868.57;;;9.20;99.90;;;;;;5032853;28;20947;-69
2024/03/05 06:18:44;;;;;;;902.60;849.60;;;9.40;99.90;;;;;;5033105;28;20172;-69
2024/03/05 06:21:10;;;;;;;886.13;834.77;;;9.40;99.90;;;;;;5032879;28;20210;-69
2024/03/05 06:23:37;;;;;;;916.97;863.87;;;9.30;99.90;;;;;;5014758;28;20327;-69
2024/03/05 06:26:07;;;;;;;999.07;935.97;;;9.30;99.90;;;;;;5015030;28;20186;-69
2024/03/05 06:28:32;;;;;;;931.53;876.07;;;9.20;99.90;;;;;;5032850;28;20419;-70
2024/03/05 06:30:58;;;;;;;1045.60;971.00;;;9.30;99.90;;;;;;5032780;28;20925;-69
2024/03/05 06:33:24;;;;;;;930.73;873.33;;;9.20;99.90;;;;;;5032211;28;20210;-69
2024/03/05 06:35:50;;;;;;;1011.90;946.40;;;9.10;99.90;;;;;;5014884;28;20668;-69
2024/03/05 06:38:17;;;;;;;854.87;805.17;;;9.20;99.90;;;;;;5032540;28;20407;-68
2024/03/05 06:40:42;;;;;;;1345.10;999.90;;;9.10;99.90;;;;;;5032526;28;20403;-70
2024/03/05 06:43:20;;;;;;;871.93;819.63;;;9.10;99.90;;;;;;5032039;28;20525;-70
2024/03/05 06:45:46;;;;;;;900.97;848.77;;;9.10;99.90;;;;;;5032603;28;20665;-69
2024/03/05 06:48:18;;;;;;;876.27;825.50;;;8.90;99.90;;;;;;5032482;28;20437;-69
2024/03/05 06:50:47;;;;;;;895.13;843.37;;;9.00;99.90;;;;;;5032477;28;20619;-69
2024/03/05 06:58:44;;;;;;;886.37;833.93;;;9.00;99.90;;;;;;5017726;28;20409;-69
2024/03/05 07:01:11;;;;;;;905.07;851.40;;;9.00;99.90;;;;;;5032206;28;20784;-69
2024/03/05 07:03:38;;;;;;;905.07;850.63;;;9.10;99.90;;;;;;5031831;28;20433;-69
2024/03/05 07:06:07;;;;;;;927.97;872.73;;;9.10;99.90;;;;;;5032160;28;20405;-70
2024/03/05 07:08:40;;;;;;;912.73;858.37;;;9.10;99.90;;;;;;5032146;28;20411;-69
2024/03/05 07:11:09;;;;;;;922.10;866.33;;;9.30;99.90;;;;;;5032145;28;20928;-69
2024/03/05 07:13:38;;;;;;;989.47;928.73;;;9.20;99.90;;;;;;5014012;28;20512;-69
2024/03/05 07:16:04;;;;;;;909.63;855.67;;;9.20;99.90;;;;;;5031954;28;20445;-69
2024/03/05 07:18:30;;;;;;;914.27;860.23;;;9.30;99.90;;;;;;5014370;28;20410;-69
2024/03/05 07:20:56;;;;;;;919.27;864.90;;;9.30;99.90;;;;;;5031990;28;20414;-70
2024/03/05 07:23:22;;;;;;;933.97;877.70;;;9.40;1.00;;;;;;5014043;28;20594;-69
2024/03/05 07:25:48;;;;;;;931.10;876.03;;;9.40;99.90;;;;;;5031949;28;20405;-70
2024/03/05 07:28:15;;;;;;;933.97;877.30;;;9.40;99.90;;;;;;5031966;28;20179;-70
2024/03/05 07:30:42;;;;;;;1081.37;999.90;;;9.30;1.00;;;;;;5031889;28;20167;-70
2024/03/05 07:33:11;;;;;;;1008.03;945.23;;;9.30;1.00;;;;;;5019011;28;20457;-70
2024/03/05 07:35:36;;;;;;;954.10;895.07;;;9.30;53.80;;;;;;5038438;28;20449;-70
2024/03/05 07:38:02;;;;;;;951.30;895.17;;;9.30;1.00;;;;;;5038438;28;20401;-70
2024/03/05 07:40:29;;;;;;;1009.27;946.00;;;9.40;17.40;;;;;;5038453;28;20622;-70
2024/03/05 07:42:54;;;;;;;988.47;924.23;;;9.40;1.00;;;;;;5038016;28;20192;-70
2024/03/05 07:45:21;;;;;;;970.43;911.57;;;9.70;1.00;;;;;;5038439;28;20772;-69
2024/03/05 07:47:50;;;;;;;944.20;888.23;;;9.50;1.00;;;;;;5038452;28;20681;-70
2024/03/05 07:50:16;;;;;;;1041.47;975.20;;;9.60;1.00;;;;;;5020532;28;20422;-70
2024/03/05 07:52:43;;;;;;;979.47;920.30;;;9.50;99.90;;;;;;5037984;28;20426;-69
2024/03/05 07:55:13;;;;;;;1017.83;951.97;;;9.60;99.90;;;;;;5038279;28;20496;-69
2024/03/05 07:57:40;;;;;;;978.77;918.90;;;9.50;1.00;;;;;;5038383;28;20405;-70
2024/03/05 08:00:14;;;;;;;949.30;891.37;;;9.50;1.00;;;;;;5038500;28;20824;-70
2024/03/05 08:02:55;;;;;;;941.13;883.97;;;9.50;1.00;;;;;;5038010;28;20453;-70
2024/03/05 08:05:22;;;;;;;958.80;899.90;;;9.40;99.90;;;;;;5038300;28;20406;-70
2024/03/05 08:07:53;;;;;;;934.70;879.23;;;9.30;1.00;;;;;;5038253;28;20397;-69
2024/03/05 08:10:19;;;;;;;934.17;878.83;;;9.30;99.90;;;;;;5038257;28;20492;-69
2024/03/05 08:12:47;;;;;;;885.40;833.60;;;9.40;67.10;;;;;;5037833;28;20473;-70
2024/03/05 08:15:15;;;;;;;962.90;903.40;;;9.50;82.60;;;;;;5038056;28;20882;-70
2024/03/05 08:17:45;;;;;;;932.27;875.93;;;9.20;10.30;;;;;;5038113;28;20436;-69
2024/03/05 08:20:15;;;;;;;962.47;905.03;;;9.30;1.00;;;;;;5038070;28;20406;-70
2024/03/05 08:22:42;;;;;;;1188.23;999.90;;;9.30;99.90;;;;;;5037650;28;20424;-70
2024/03/05 08:25:15;;;;;;;947.33;891.13;;;9.20;1.00;;;;;;5038064;28;20972;-69
2024/03/05 08:27:45;;;;;;;927.70;872.33;;;9.10;1.00;;;;;;5038257;28;20416;-70
2024/03/05 08:30:16;;;;;;;972.87;913.17;;;9.00;1.00;;;;;;5037890;28;20413;-69
2024/03/05 08:32:42;;;;;;;937.63;880.80;;;9.00;99.90;;;;;;5037612;28;20455;-70
2024/03/05 08:35:17;;;;;;;982.33;920.90;;;9.10;99.90;;;;;;5037816;28;20416;-69
2024/03/05 08:37:45;;;;;;;1134.63;999.90;;;9.10;99.90;;;;;;5038149;28;20788;-70
2024/03/05 08:40:15;;;;;;;973.90;912.50;;;9.00;99.90;;;;;;5037843;28;20402;-69
2024/03/05 08:42:45;;;;;;;994.70;931.73;;;9.10;99.90;;;;;;5037390;28;20474;-70
2024/03/05 08:45:14;;;;;;;1043.93;976.77;;;9.10;99.90;;;;;;5033892;28;20412;-69
2024/03/05 08:47:46;;;;;;;1033.77;966.90;;;9.10;99.90;;;;;;5034540;28;20401;-70
2024/03/05 08:50:12;;;;;;;1010.10;946.77;;;9.20;99.90;;;;;;5034365;28;20406;-70
2024/03/05 08:52:39;;;;;;;1014.87;951.70;;;9.40;99.90;;;;;;5033609;28;20421;-70
2024/03/05 08:55:08;;;;;;;1018.17;954.20;;;9.30;99.90;;;;;;5034583;28;20424;-70
2024/03/05 08:57:35;;;;;;;1012.93;948.63;;;9.40;1.00;;;;;;5034350;28;20436;-70
2024/03/05 09:00:02;;;;;;;1011.07;946.30;;;9.40;1.00;;;;;;5034426;28;20772;-69
2024/03/05 09:02:28;;;;;;;1021.40;956.80;;;9.30;1.00;;;;;;5034331;28;20445;-70
2024/03/05 09:04:53;;;;;;;994.23;930.97;;;9.30;1.00;;;;;;5034504;28;20402;-69
2024/03/05 09:07:20;;;;;;;1016.87;952.40;;;9.40;99.90;;;;;;5034451;28;20184;-69
2024/03/05 09:09:46;;;;;;;1043.27;975.50;;;9.30;99.90;;;;;;5016788;28;20185;-69
2024/03/05 09:12:13;;;;;;;1076.63;996.83;;;9.40;1.00;;;;;;5016443;28;20424;-70
2024/03/05 09:14:42;;;;;;;1027.47;959.50;;;9.40;1.00;;;;;;5033961;28;20405;-69
2024/03/05 09:17:11;;;;;;;1099.03;999.90;;;9.30;1.00;;;;;;5031701;28;20468;-69
2024/03/05 09:19:37;;;;;;;1067.00;996.23;;;9.30;1.00;;;;;;5032931;28;20469;-70
2024/03/05 09:22:05;;;;;;;1050.30;982.33;;;9.50;1.00;;;;;;5033045;28;20782;-70
2024/03/05 09:24:32;;;;;;;1217.60;999.90;;;9.50;1.00;;;;;;5032555;28;20402;-69
2024/03/05 09:27:01;;;;;;;1080.20;998.00;;;9.80;1.00;;;;;;5015249;28;20440;-69
2024/03/05 09:29:28;;;;;;;1099.13;999.90;;;9.60;1.00;;;;;;5032909;28;20414;-70
2024/03/05 09:31:53;;;;;;;1157.27;999.90;;;9.50;1.00;;;;;;5032958;28;20417;-70
2024/03/05 09:34:19;;;;;;;1047.93;978.03;;;9.50;1.00;;;;;;5079392;22;20493;-70
2024/03/05 09:36:45;;;;;;;1040.50;973.20;;;9.70;1.00;;;;;;5053186;28;20244;-68
2024/03/05 09:39:11;;;;;;;1070.00;999.33;;;9.80;1.00;;;;;;5065674;28;20456;-68
2024/03/05 09:41:43;;;;;;;998.53;934.47;;;9.70;1.00;;;;;;5061953;28;20662;-68
2024/03/05 09:44:09;;;;;;;1019.03;954.13;;;9.70;1.00;;;;;;5052905;28;20700;-68
2024/03/05 09:46:39;;;;;;;1083.63;999.90;;;9.60;1.00;;;;;;5053446;28;20893;-68
2024/03/05 09:49:10;;;;;;;1036.97;969.37;;;9.50;99.90;;;;;;5060156;28;20551;-68
2024/03/05 09:51:39;;;;;;;1066.17;995.20;;;9.50;99.90;;;;;;5052880;28;20408;-69
2024/03/05 09:54:12;;;;;;;1083.70;999.90;;;9.40;99.90;;;;;;5052177;28;20436;-67
2024/03/05 09:56:42;;;;;;;1111.97;999.90;;;9.40;1.00;;;;;;5055354;28;20473;-69
2024/03/05 09:59:10;;;;;;;1044.57;975.77;;;9.50;74.00;;;;;;5053044;28;20404;-71
2024/03/05 10:01:37;;;;;;;1070.50;997.40;;;9.50;49.90;;;;;;5053206;28;20405;-69
2024/03/05 10:04:05;;;;;;;1088.27;999.90;;;9.40;42.80;;;;;;5052153;28;20438;-70
2024/03/05 10:06:30;;;;;;;1097.80;999.90;;;9.50;24.70;;;;;;5053209;28;20776;-71
2024/03/05 10:08:57;;;;;;;1113.33;999.90;;;9.60;16.90;;;;;;5052786;28;20496;-70
2024/03/05 10:11:22;;;;;;;1103.83;999.90;;;9.60;85.60;;;;;;5052880;28;20179;-70
2024/03/05 10:13:49;;;;;;;1112.13;999.90;;;9.80;94.00;;;;;;5054006;28;20417;-70
2024/03/05 10:16:24;;;;;;;1233.20;999.90;;;9.60;40.20;;;;;;5052883;28;20247;-70
2024/03/05 10:18:50;;;;;;;1091.83;999.90;;;9.80;65.60;;;;;;5052637;28;20876;-71
2024/03/05 10:21:19;;;;;;;1075.40;998.53;;;9.80;39.50;;;;;;5018822;28;20855;-69
2024/03/05 10:24:04;;;;;;;1078.07;999.90;;;9.90;1.00;;;;;;5051620;28;20405;-69
2024/03/05 10:26:30;;;;;;;1075.60;999.43;;;9.80;1.00;;;;;;5052711;28;20400;-70
2024/03/05 10:29:10;;;;;;;1049.93;980.77;;;9.80;99.90;;;;;;5052522;28;20412;-71
2024/03/05 10:31:40;;;;;;;1069.13;997.97;;;9.90;99.90;;;;;;5047934;28;20406;-70
2024/03/05 10:34:06;;;;;;;1089.47;999.90;;;9.70;91.00;;;;;;5046801;28;20442;-69
2024/03/05 10:36:33;;;;;;;1090.50;999.90;;;9.90;99.90;;;;;;5051251;28;20453;-70
2024/03/05 10:38:59;;;;;;;1079.70;999.90;;;9.90;1.00;;;;;;5054350;28;20417;-71
2024/03/05 10:41:32;;;;;;;1089.73;999.90;;;9.90;1.00;;;;;;5052442;28;20418;-71
2024/03/05 10:44:02;;;;;;;1085.97;999.90;;;10.00;1.00;;;;;;5051631;28;20428;-71
2024/03/05 10:46:29;;;;;;;1081.67;999.90;;;10.10;1.00;;;;;;5053354;28;20449;-71
2024/03/05 10:48:57;;;;;;;1084.83;999.90;;;10.10;99.90;;;;;;5062703;28;20421;-70
2024/03/05 10:51:28;;;;;;;1083.17;999.90;;;10.00;1.00;;;;;;5055966;28;20420;-70
2024/03/05 10:53:56;;;;;;;1086.17;999.90;;;9.90;40.30;;;;;;5051373;28;20501;-72
2024/03/05 10:56:21;;;;;;;1079.70;999.90;;;10.00;1.00;;;;;;5052002;28;20445;-72
2024/03/05 11:01:35;;;;;;;1166.47;999.90;;;10.10;19.40;;;;;;5050891;28;20756;-70
2024/03/05 11:04:06;;;;;;;1069.50;997.53;;;10.10;1.00;;;;;;5053099;28;20541;-70
2024/03/05 11:06:34;;;;;;;1081.87;999.90;;;10.10;1.00;;;;;;5041900;28;20421;-70
2024/03/05 11:09:00;;;;;;;1066.53;994.97;;;10.20;1.00;;;;;;5051025;28;20439;-70
2024/03/05 11:11:29;;;;;;;1122.47;999.90;;;10.30;1.00;;;;;;5050079;28;20415;-69
2024/03/05 11:14:01;;;;;;;1116.07;999.90;;;10.50;1.00;;;;;;5050565;28;20826;-69
2024/03/05 11:16:32;;;;;;;1100.67;999.90;;;10.50;1.00;;;;;;5050597;28;20446;-70
2024/03/05 11:18:58;;;;;;;1123.20;999.90;;;10.60;1.00;;;;;;5053913;28;20412;-69
2024/03/05 11:21:25;;;;;;;1082.60;999.90;;;10.70;1.00;;;;;;5060277;28;20806;-71
2024/03/05 11:23:51;;;;;;;1065.23;993.87;;;10.50;99.90;;;;;;5048381;28;20457;-70
2024/03/05 11:26:24;;;;;;;1091.37;999.90;;;10.70;99.90;;;;;;5059059;28;20910;-71
2024/03/05 11:28:56;;;;;;;1102.57;999.90;;;10.70;99.90;;;;;;5051414;28;20183;-70
2024/03/05 11:31:27;;;;;;;1100.70;999.90;;;10.70;1.00;;;;;;5051496;28;20402;-70
2024/03/05 11:34:02;;;;;;;1139.27;999.90;;;10.00;99.90;;;;;;5042527;28;20413;-70
2024/03/05 11:36:31;;;;;;;1072.57;999.07;;;10.60;99.90;;;;;;5061057;28;20539;-71
2024/03/05 11:39:19;;;;;;;1106.90;999.90;;;10.60;48.70;;;;;;5071083;28;20904;-71
2024/03/05 11:41:46;;;;;;;1050.70;982.13;;;10.60;1.00;;;;;;5050779;28;20394;-71
2024/03/05 11:44:13;;;;;;;1042.37;974.70;;;10.50;1.00;;;;;;5057490;28;20502;-70
2024/03/05 11:46:39;;;;;;;1069.73;999.90;;;10.40;20.10;;;;;;5059247;28;20465;-72
2024/03/05 11:49:06;;;;;;;1025.40;961.40;;;10.40;62.60;;;;;;5052385;28;20421;-70
2024/03/05 11:51:31;;;;;;;1172.90;999.90;;;10.30;82.50;;;;;;5061861;28;20190;-70
2024/03/05 11:53:59;;;;;;;1043.73;976.63;;;10.20;99.90;;;;;;5053809;28;20437;-70
2024/03/05 11:56:25;;;;;;;1032.17;965.77;;;10.10;99.90;;;;;;5048719;28;20507;-71
2024/03/05 11:58:54;;;;;;;1023.33;959.17;;;10.20;99.90;;;;;;5049812;28;20413;-71
2024/03/05 12:01:21;;;;;;;1014.97;949.70;;;10.10;99.90;;;;;;5031138;28;20413;-71
2024/03/05 12:03:49;;;;;;;1009.77;946.60;;;10.30;99.90;;;;;;5049176;28;20471;-69
2024/03/05 12:06:18;;;;;;;1060.23;992.87;;;10.10;99.40;;;;;;5060106;28;20862;-70
2024/03/05 12:08:44;;;;;;;1040.50;972.93;;;10.20;99.90;;;;;;5051445;28;20862;-71
2024/03/05 12:11:10;;;;;;;1071.40;999.90;;;10.30;99.90;;;;;;5050389;28;20912;-71
2024/03/05 12:13:36;;;;;;;1039.00;970.10;;;;;;;;;;5056916;28;20420;-71
2024/03/05 12:16:13;;;;;;;1077.50;999.90;;;10.60;98.10;;;;;;5057600;28;20202;-70
2024/03/05 12:18:40;;;;;;;1041.63;974.80;;;10.70;94.60;;;;;;5045405;28;20387;-71
2024/03/05 12:21:06;;;;;;;1038.13;971.57;;;10.80;90.70;;;;;;5054571;28;20402;-71
2024/03/05 12:23:36;;;;;;;1073.63;999.90;;;11.00;83.50;;;;;;5060463;28;20399;-70
2024/03/05 12:26:02;;;;;;;1084.80;999.90;;;11.20;83.50;;;;;;5062253;28;20417;-70
2024/03/05 12:28:27;;;;;;;1057.47;989.60;;;11.30;64.90;;;;;;5056191;28;20790;-71